TimeMST,TemperatureF,Dew PointF,Humidity,Sea Level PressureIn,VisibilityMPH,Wind Direction,Wind SpeedMPH,Gust SpeedMPH,PrecipitationIn,Events,Conditions,WindDirDegrees,DateUTC
12:56 AM,32.0,21.9,66,30.22,-9999.0,SW,11.5,-,N/A,,Unknown,230,2013-01-18 07:56:00
1:56 AM,32.0,21.9,66,30.19,-9999.0,WSW,11.5,-,N/A,,Unknown,240,2013-01-18 08:56:00
2:56 AM,30.9,19.9,64,30.18,-9999.0,WSW,12.7,-,N/A,,Unknown,240,2013-01-18 09:56:00
3:56 AM,30.0,19.9,66,30.16,-9999.0,WSW,11.5,-,N/A,,Unknown,250,2013-01-18 10:56:00
4:56 AM,28.9,19.0,67,30.17,-9999.0,WSW,11.5,-,N/A,,Unknown,250,2013-01-18 11:56:00
5:56 AM,26.1,18.0,71,30.17,-9999.0,WSW,6.9,-,N/A,,Unknown,250,2013-01-18 12:56:00
6:56 AM,26.1,18.0,71,30.19,-9999.0,West,6.9,-,N/A,,Unknown,260,2013-01-18 13:56:00
7:56 AM,34.0,19.9,56,30.17,-9999.0,West,5.8,-,N/A,,Unknown,280,2013-01-18 14:56:00
8:56 AM,46.0,19.9,35,30.15,-9999.0,West,8.1,-,N/A,,Unknown,280,2013-01-18 15:56:00
9:56 AM,53.1,19.0,26,30.14,-9999.0,West,5.8,-,N/A,,Unknown,270,2013-01-18 16:56:00
10:56 AM,57.9,12.9,17,30.10,-9999.0,NNW,12.7,18.4,N/A,,Unknown,330,2013-01-18 17:56:00
11:56 AM,59.0,12.9,16,30.06,-9999.0,North,11.5,-,N/A,,Unknown,350,2013-01-18 18:56:00
12:56 PM,61.0,12.9,15,30.03,-9999.0,NNE,12.7,20.7,N/A,,Unknown,30,2013-01-18 19:56:00
1:56 PM,61.0,10.9,14,30.02,-9999.0,NNE,12.7,-,N/A,,Unknown,20,2013-01-18 20:56:00
2:56 PM,61.0,7.0,12,30.02,-9999.0,NE,5.8,-,N/A,,Unknown,40,2013-01-18 21:56:00
3:56 PM,59.0,7.0,13,30.03,-9999.0,Calm,Calm,-,N/A,,Unknown,0,2013-01-18 22:56:00
4:56 PM,51.1,10.0,19,30.06,-9999.0,SE,3.5,-,N/A,,Unknown,130,2013-01-18 23:56:00
5:56 PM,39.0,10.0,30,30.11,-9999.0,Calm,Calm,-,N/A,,Unknown,0,2013-01-19 00:56:00
6:56 PM,28.9,8.1,41,30.14,-9999.0,WSW,4.6,-,N/A,,Unknown,250,2013-01-19 01:56:00
7:56 PM,28.0,10.0,47,30.12,-9999.0,West,5.8,-,N/A,,Unknown,270,2013-01-19 02:56:00
8:56 PM,30.9,10.9,43,30.06,-9999.0,West,4.6,-,N/A,,Unknown,270,2013-01-19 03:56:00
9:56 PM,28.9,10.9,47,30.04,-9999.0,West,10.4,-,N/A,,Unknown,260,2013-01-19 04:56:00
10:56 PM,26.1,10.9,53,30.02,-9999.0,NW,6.9,-,N/A,,Unknown,310,2013-01-19 05:56:00
11:56 PM,30.9,12.0,46,29.99,-9999.0,NW,10.4,-,N/A,,Unknown,310,2013-01-19 06:56:00